Maria Desgagnes — VCWL — position and weather

sailwx.info

Track history (hours):
 
Tides and Currents Weather Stations Pressure Air Temp Water Temp Dewpoint Dewpoint Depression Visibility Wind Speed Wind Dir Waves Ship Positions

Maria Desgagnes

Last reported at 2017-Jun-24 06:00 UTC. Time now 2017-Jun-24 07:14 UTC.
Position N 49°00' W 059°06'.

Length 120 m; draft 8.4 m.

Type: Ship. MMSI: 316285000.

Wind from 130 at 11 knots

Barometer 1007.4 mb
Air temperature 11.0 ° C
Dewpoint 11.0 ° C
Water temperature 8.9 ° C

Date/timePositionNaut miles runAvg speedWind from/ knotsBaromVisibWave heightAir tempDewpointWater temp
2017-Jun-24 06:00N 49°00' W 059°06'4615.4 130 / 111007.4 11.011.0 8.9
2017-Jun-24 03:00N 49°42' W 058°36'3913.1 120 / 41010.1 7.9 7.8 9.0
2017-Jun-24 00:00N 50°18' W 058°12'2814.2 060 / 51010.4 7.7 7.6 7.8
2017-Jun-23 22:00N 50°42' W 057°48'1116.2 360 / 31010.5 8.0 7.3 6.9
2017-Jun-23 21:18N 50°53' W 057°42'1 4.7
2017-Jun-23 21:00N 50°54' W 057°42'725.6 050 / 91010.2 8.5 7.3 7.0
2017-Jun-23 20:44N 50°60' W 057°37'1013.6
2017-Jun-23 20:00N 51°06' W 057°24'1414.2 060 / 111009.9 8.2 7.2 6.0
2017-Jun-23 19:00N 51°18' W 057°12'1616.1 080 / 91010.6 6.8 6.7 7.0
2017-Jun-23 18:00N 51°24' W 056°48'1312.7 050 / 41010.3 5.5 5.4 6.9
2017-Jun-23 17:00N 51°30' W 056°30'10 9.6 040 / 31010.0 5.6 5.5 6.7
2017-Jun-23 16:00N 51°36' W 056°18'1919.1 070 / 111009.7 4.2 4.2 3.6
2017-Jun-23 15:00N 51°48' W 055°54'7 7.1 040 / 151009.8 4.9 4.8 3.0
2017-Jun-23 14:00N 51°54' W 055°48'10 9.5 020 / 131010.1 4.0 4.0 2.4
2017-Jun-23 13:00N 52°00' W 055°36'1414.1 010 / 141009.6 3.4 3.4 3.3
2017-Jun-23 12:00N 52°12' W 055°24'1212.0 020 / 121009.3 3.5 3.5 3.8
2017-Jun-23 11:00N 52°24' W 055°24'1212.0 030 / 111009.4 3.4 3.4 4.1
2017-Jun-23 10:00N 52°36' W 055°24'1312.5 050 / 91009.7 3.3 3.2 3.9
2017-Jun-23 09:00N 52°48' W 055°18'6 6.0 060 / 91009.4 3.4 3.3 3.9
2017-Jun-23 08:00N 52°54' W 055°18'1818.0 050 / 111009.2 2.9 2.9 2.9
2017-Jun-23 07:00N 53°12' W 055°18'6 6.0 070 / 101009.4 2.8 2.8 2.6
2017-Jun-23 06:00N 53°18' W 055°18'1212.0 060 / 141009.6 2.9 2.8 3.0
2017-Jun-23 05:00N 53°30' W 055°18'9 9.3 060 / 121009.7 3.0 2.9 3.1
2017-Jun-23 04:00N 53°36' W 055°30'1616.0 070 / 101010.6 2.9 2.8 2.4
2017-Jun-23 03:00N 53°48' W 055°48'7 7.0 080 / 91010.5 2.6 2.5 4.3
2017-Jun-23 02:00N 53°54' W 055°54'1616.0 070 / 81010.6 2.1 2.0 4.3
2017-Jun-23 01:00N 54°06' W 056°12'1413.9 080 / 91010.8 1.9 1.9 2.0
2017-Jun-23 00:00N 54°18' W 056°24'1212.1 070 / 71010.8 1.6 1.5 1.7
2017-Jun-22 23:00N 54°24' W 056°42'1414.0 100 / 81010.2 1.6 1.5 1.9
2017-Jun-22 22:00N 54°24' W 057°06'1414.0 090 / 81009.7 2.1 2.0 4.9
2017-Jun-22 21:00N 54°24' W 057°30'1515.2 070 / 101008.9 2.7 2.6 4.6
2017-Jun-22 20:00N 54°18' W 057°54'1515.3 080 / 121008.7 3.5 3.4 3.1
2017-Jun-22 19:00N 54°12' W 058°18'1212.1 070 / 151006.4 3.3 3.2 2.4
2017-Jun-22 18:00N 54°06' W 058°36'1616.0 070 / 171005.8 6.2 5.8 4.7
2017-Jun-22 17:00N 53°54' W 058°54'1110.6 070 / 211004.9 6.3 5.5 5.6
2017-Jun-22 16:00N 53°54' W 059°12'1616.0 050 / 221004.5 6.4 5.7 6.4
2017-Jun-22 15:00N 53°42' W 059°30'1212.2 050 / 171004.6 7.0 6.2 8.7
2017-Jun-22 14:00N 53°36' W 059°48'7 7.0 070 / 151005.3 6.9 6.5 8.7
2017-Jun-22 13:00N 53°30' W 059°54'1212.3 060 / 101005.5 7.1 7.0 9.7
2017-Jun-22 12:00N 53°24' W 060°12'9 9.3 050 / 111004.7 6.9 6.911.1
2017-Jun-22 11:00N 53°18' W 060°24'0 0.0 040 / 121005.3 7.3 7.2
2017-Jun-22 10:00N 53°18' W 060°24'0 0.0 040 / 121004.9 7.3 7.2
2017-Jun-22 09:00N 53°18' W 060°24'0 0.0 050 / 131004.8 7.2 7.1
2017-Jun-22 08:00N 53°18' W 060°24'0 0.0 040 / 121004.6 7.2 7.1
2017-Jun-22 07:00N 53°18' W 060°24'0 0.0 040 / 121004.3 7.3 7.3
2017-Jun-22 06:00N 53°18' W 060°24'0 0.0 050 / 131004.3 7.6 7.6
2017-Jun-22 05:00N 53°18' W 060°24'0 0.0 040 / 131004.6 7.5 7.5
2017-Jun-22 04:00N 53°18' W 060°24'0 0.0 050 / 131004.7 7.6 7.6
2017-Jun-22 03:00N 53°18' W 060°24'0 0.0 050 / 141005.0 7.7 7.6
2017-Jun-22 02:00N 53°18' W 060°24'0 0.0 050 / 121005.1 8.0 7.6
2017-Jun-22 01:00N 53°18' W 060°24'0 0.0 040 / 111005.4 8.4 6.9
2017-Jun-22 00:00N 53°18' W 060°24'0 0.0 050 / 121005.0 9.0 7.1
2017-Jun-21 23:00N 53°18' W 060°24'0 0.0 060 / 131004.7 9.6 6.7
2017-Jun-21 22:00N 53°18' W 060°24'0 0.0 060 / 101004.1 9.6 6.812.7
2017-Jun-21 21:00N 53°18' W 060°24'9 9.3 070 / 131004.2 9.0 6.612.0
2017-Jun-21 20:00N 53°24' W 060°12'1212.3 040 / 111003.6 8.8 6.5 9.8
2017-Jun-21 19:00N 53°30' W 059°54'7 7.0 040 / 111003.9 7.6 5.9 9.9
2017-Jun-21 18:00N 53°36' W 059°48'1212.2 070 / 81003.8 7.2 5.6 8.0
2017-Jun-21 17:00N 53°42' W 059°30'1616.0 100 / 81003.2 6.5 5.2 9.0
2017-Jun-21 16:00N 53°54' W 059°12'1110.6 110 / 81002.9 5.7 5.4 6.4
2017-Jun-21 15:00N 53°54' W 058°54'1212.2 280 / 11002.3 4.8 4.8 5.0
2017-Jun-21 14:00N 54°00' W 058°36'1413.9 230 / 41001.3 4.0 3.9 5.1
2017-Jun-21 13:00N 54°12' W 058°24'9 9.2 360 / 51000.7 3.9 3.9 2.2
2017-Jun-21 12:00N 54°18' W 058°12'1414.0 350 / 7999.4 3.3 3.3 3.3
2017-Jun-21 11:00N 54°18' W 057°48'1515.2 050 / 9998.2 3.2 3.1 4.2
2017-Jun-21 10:00N 54°24' W 057°24'1010.5 030 / 13998.4 2.5 2.5 3.6
2017-Jun-21 09:00N 54°24' W 057°06'1010.5 020 / 13997.8 1.5 1.5 0.9
2017-Jun-21 08:00N 54°24' W 056°48'1212.1 040 / 15997.4 1.5 1.5 1.3
2017-Jun-21 07:00N 54°18' W 056°30'7 7.0 040 / 15997.1 1.7 1.6 1.2
2017-Jun-21 06:00N 54°18' W 056°18'7 6.9 060 / 14997.2 2.0 2.0 1.4
2017-Jun-21 05:00N 54°12' W 056°12'9 9.2 070 / 12997.9 2.2 2.2 1.7
2017-Jun-21 04:00N 54°06' W 056°00'1312.5 080 / 13998.5 2.4 2.4 1.8
2017-Jun-21 03:00N 53°54' W 055°54'9 9.3 090 / 14999.7 2.7 2.7 2.7
2017-Jun-21 02:00N 53°48' W 055°42'7 7.0 070 / 131000.6 2.8 2.8 2.4
2017-Jun-21 01:00N 53°42' W 055°36'9 9.3 050 / 91001.7 2.9 2.8 2.8
2017-Jun-21 00:00N 53°36' W 055°24'7 7.0 270 / 11002.1 2.7 2.6 2.4
2017-Jun-20 23:00N 53°30' W 055°18'1312.5 360 / 41001.6 2.7 2.6 2.6
2017-Jun-20 22:00N 53°18' W 055°24'1212.0 340 / 111001.7 3.6 3.6 3.3
2017-Jun-20 21:00N 53°06' W 055°24'1212.0 340 / 51002.0 4.3 4.3 3.3
2017-Jun-20 20:00N 52°54' W 055°24'1212.0 260 / 51001.6 5.5 5.5 4.1
2017-Jun-20 19:00N 52°42' W 055°24'1212.0 260 / 51001.9 4.2 4.2 3.2
2017-Jun-20 18:00N 52°30' W 055°24'7 7.0 270 / 41002.9 4.3 4.3 2.9
2017-Jun-20 17:00N 52°24' W 055°18'1212.0 200 / 141003.7 5.5 5.5 2.7
2017-Jun-20 16:00N 52°12' W 055°18'1312.6 190 / 131004.6 6.5 6.5 3.1
2017-Jun-20 15:00N 52°00' W 055°24'1312.6 200 / 171005.5 6.5 6.5 3.0
2017-Jun-20 14:00N 51°54' W 055°42'10 9.5 150 / 101006.7 3.0 3.0 2.7
2017-Jun-20 13:00N 51°48' W 055°54'1616.4 080 / 31007.4 2.9 2.8 2.6
2017-Jun-20 12:00N 51°36' W 056°12'10 9.6 060 / 71008.2 2.8 2.8 2.5
2017-Jun-20 11:00N 51°30' W 056°24'1312.7 060 / 81008.4 2.7 2.6 2.9
2017-Jun-20 10:00N 51°24' W 056°42'10 9.6 050 / 121008.4 3.5 3.4 5.5
2017-Jun-20 09:00N 51°18' W 056°54'1312.8 050 / 181008.0 3.4 3.3 2.3
2017-Jun-20 08:00N 51°12' W 057°12'1312.8 070 / 151008.5 4.1 4.1 6.3
2017-Jun-20 07:00N 51°06' W 057°30'1312.6 080 / 151008.5 5.9 5.9 5.0
2017-Jun-20 06:00N 50°54' W 057°36'4113.6 090 / 131009.5 7.1 7.1 6.0
2017-Jun-20 03:00N 50°18' W 058°06'3411.2 210 / 131010.7 10.0 9.9 6.6
2017-Jun-20 00:00N 49°48' W 058°30'3913.1 200 / 181010.5 12.112.1 7.1
2017-Jun-19 21:00N 49°12' W 058°54'4113.7 170 / 131010.5 10.110.1 7.6
2017-Jun-19 18:00N 48°36' W 059°24'4515.0 200 / 191010.4 12.512.5 8.0
2017-Jun-19 15:00N 47°54' W 059°48'3110.5 160 / 171011.3 11.411.4 7.6
2017-Jun-19 12:00N 47°30' W 059°18'4113.7 090 / 161013.1 8.1 8.1 7.7
2017-Jun-19 09:00N 47°24' W 058°18'3712.4 130 / 41013.3 8.2 8.2 7.6
2017-Jun-19 06:00N 47°18' W 057°24'4113.7 160 / 111013.9 7.6 7.5 7.0
2017-Jun-19 03:00N 47°12' W 056°24'25 8.5 190 / 131015.3 7.2 7.2 7.1
2017-Jun-19 00:00N 46°48' W 056°12'0 0.0 210 / 131016.5 11.810.9
2017-Jun-18 21:00N 46°48' W 056°12'0 0.0 190 / 121017.8 9.5 9.4
2017-Jun-18 18:00N 46°48' W 056°12'0 0.0 210 / 121020.9 11.6 9.7
2017-Jun-18 15:00N 46°48' W 056°12'0 0.0 210 / 111023.2 11.1 9.4
2017-Jun-18 12:00N 46°48' W 056°12'0 0.0 210 / 91024.7 10.3 8.8
2017-Jun-18 09:00N 46°48' W 056°12'0 0.0 230 / 111024.9 9.2 8.5
2017-Jun-18 06:00N 46°48' W 056°12'0 0.0 220 / 121025.5 9.7 8.4
2017-Jun-18 03:00N 46°48' W 056°12'0 0.0 220 / 91027.2 9.9 6.4
2017-Jun-18 00:00N 46°48' W 056°12'0 0.0 220 / 121027.7 10.6 6.5
2017-Jun-17 21:00N 46°48' W 056°12'13 4.2 220 / 141028.3 12.4 6.2 6.7
2017-Jun-17 18:00N 46°36' W 056°06'3812.5 210 / 111028.9 8.3 7.2 6.5
2017-Jun-17 15:00N 46°12' W 056°48'4113.7 210 / 151028.9 8.7 7.9 6.5
2017-Jun-17 12:00N 45°48' W 057°36'3812.6 190 / 111028.9 8.7 7.5 7.1
2017-Jun-17 09:00N 45°24' W 058°18'3812.8 200 / 101028.6 8.6 7.5 6.9
2017-Jun-17 06:00N 45°06' W 059°06'3812.8 190 / 111027.8 8.7 7.7 7.5
2017-Jun-17 03:00N 44°48' W 059°54'3912.9 190 / 81027.2 8.9 8.3 7.8
2017-Jun-17 00:00N 44°30' W 060°42'3912.9 180 / 101026.9 9.6 9.2 8.3
2017-Jun-16 21:00N 44°12' W 061°30'4314.3 190 / 111026.8 10.4 9.6 9.6
2017-Jun-16 18:00N 43°54' W 062°24'4314.3 160 / 111025.4 11.0 9.710.0
2017-Jun-16 15:00N 43°36' W 063°18'4113.7 170 / 161025.0 10.8 9.2 9.3
2017-Jun-16 12:00N 43°24' W 064°12'4515.1 150 / 81024.0 11.210.110.5
2017-Jun-16 09:00N 43°12' W 065°12'3913.1 080 / 31022.7 10.8 9.911.2
2017-Jun-16 06:00N 43°12' W 066°06'3912.9 170 / 101021.7 10.710.4 8.3
2017-Jun-16 03:00N 43°36' W 066°48'4214.1 230 / 91021.6 12.410.7 8.9
2017-Jun-16 00:00N 44°18' W 066°54'3913.2 230 / 81020.1 12.110.2 9.0
2017-Jun-15 21:00N 44°48' W 066°18'3310.9 230 / 101018.7 12.6 8.3 9.5
2017-Jun-15 18:00N 45°18' W 066°00'0 0.0 200 / 91019.1 11.3 9.7
2017-Jun-15 15:00N 45°18' W 066°00'0 0.0 190 / 91019.9 12.2 8.2
2017-Jun-15 12:00N 45°18' W 066°00'0 0.0 230 / 21019.9 13.1 6.9
2017-Jun-15 09:00N 45°18' W 066°00'0 0.0 100 / 41018.6 11.3 6.2
2017-Jun-15 06:00N 45°18' W 066°00'0 0.0 090 / 91017.9 10.7 6.5
2017-Jun-15 03:00N 45°18' W 066°00'0 0.0 080 / 11017.7 13.4 7.9
2017-Jun-15 00:00N 45°18' W 066°00'0 0.0 180 / 31016.0 14.6 8.0
2017-Jun-14 21:00N 45°18' W 066°00'24 8.1 350 / 131013.7 18.5 4.8
2017-Jun-14 18:00N 44°54' W 066°06'3511.5 280 / 41012.7 13.7 7.011.1
2017-Jun-14 15:00N 44°24' W 066°30'4314.3 330 / 111013.9 11.1 5.3 8.9
2017-Jun-14 12:00N 43°42' W 066°42'3210.8 340 / 181011.8 11.1 6.7 8.7
2017-Jun-14 09:00N 43°18' W 066°12'3511.8 360 / 171009.0 11.7 7.6 8.4
2017-Jun-14 06:00N 43°12' W 065°24'   330 / 121008.4 16.713.810.4
Track history (hours):
 
Tides and Currents Weather Stations Pressure Air Temp Water Temp Dewpoint Dewpoint Depression Visibility Wind Speed Wind Dir Waves Ship Positions

Maria Desgagnes

Last reported at 2017-Jun-24 06:00 UTC. Time now 2017-Jun-24 07:14 UTC.
Position N 49°00' W 059°06'.

Length 120 m; draft 8.4 m.

Type: Ship. MMSI: 316285000.

Wind from 130 at 11 knots

Barometer 1007.4 mb
Air temperature 11.0 ° C
Dewpoint 11.0 ° C
Water temperature 8.9 ° C

Date/timePositionNaut miles runAvg speedWind from/ knotsBaromVisibWave heightAir tempDewpointWater temp
2017-Jun-24 06:00N 49°00' W 059°06'4615.4 130 / 111007.4 11.011.0 8.9
2017-Jun-24 03:00N 49°42' W 058°36'3913.1 120 / 41010.1 7.9 7.8 9.0
2017-Jun-24 00:00N 50°18' W 058°12'2814.2 060 / 51010.4 7.7 7.6 7.8
2017-Jun-23 22:00N 50°42' W 057°48'1116.2 360 / 31010.5 8.0 7.3 6.9
2017-Jun-23 21:18N 50°53' W 057°42'1 4.7
2017-Jun-23 21:00N 50°54' W 057°42'725.6 050 / 91010.2 8.5 7.3 7.0
2017-Jun-23 20:44N 50°60' W 057°37'1013.6
2017-Jun-23 20:00N 51°06' W 057°24'1414.2 060 / 111009.9 8.2 7.2 6.0
2017-Jun-23 19:00N 51°18' W 057°12'1616.1 080 / 91010.6 6.8 6.7 7.0
2017-Jun-23 18:00N 51°24' W 056°48'1312.7 050 / 41010.3 5.5 5.4 6.9
2017-Jun-23 17:00N 51°30' W 056°30'10 9.6 040 / 31010.0 5.6 5.5 6.7
2017-Jun-23 16:00N 51°36' W 056°18'1919.1 070 / 111009.7 4.2 4.2 3.6
2017-Jun-23 15:00N 51°48' W 055°54'7 7.1 040 / 151009.8 4.9 4.8 3.0
2017-Jun-23 14:00N 51°54' W 055°48'10 9.5 020 / 131010.1 4.0 4.0 2.4
2017-Jun-23 13:00N 52°00' W 055°36'1414.1 010 / 141009.6 3.4 3.4 3.3
2017-Jun-23 12:00N 52°12' W 055°24'1212.0 020 / 121009.3 3.5 3.5 3.8
2017-Jun-23 11:00N 52°24' W 055°24'1212.0 030 / 111009.4 3.4 3.4 4.1
2017-Jun-23 10:00N 52°36' W 055°24'1312.5 050 / 91009.7 3.3 3.2 3.9
2017-Jun-23 09:00N 52°48' W 055°18'6 6.0 060 / 91009.4 3.4 3.3 3.9
2017-Jun-23 08:00N 52°54' W 055°18'1818.0 050 / 111009.2 2.9 2.9 2.9
2017-Jun-23 07:00N 53°12' W 055°18'6 6.0 070 / 101009.4 2.8 2.8 2.6
2017-Jun-23 06:00N 53°18' W 055°18'1212.0 060 / 141009.6 2.9 2.8 3.0
2017-Jun-23 05:00N 53°30' W 055°18'9 9.3 060 / 121009.7 3.0 2.9 3.1
2017-Jun-23 04:00N 53°36' W 055°30'1616.0 070 / 101010.6 2.9 2.8 2.4
2017-Jun-23 03:00N 53°48' W 055°48'7 7.0 080 / 91010.5 2.6 2.5 4.3
2017-Jun-23 02:00N 53°54' W 055°54'1616.0 070 / 81010.6 2.1 2.0 4.3
2017-Jun-23 01:00N 54°06' W 056°12'1413.9 080 / 91010.8 1.9 1.9 2.0
2017-Jun-23 00:00N 54°18' W 056°24'1212.1 070 / 71010.8 1.6 1.5 1.7
2017-Jun-22 23:00N 54°24' W 056°42'1414.0 100 / 81010.2 1.6 1.5 1.9
2017-Jun-22 22:00N 54°24' W 057°06'1414.0 090 / 81009.7 2.1 2.0 4.9
2017-Jun-22 21:00N 54°24' W 057°30'1515.2 070 / 101008.9 2.7 2.6 4.6
2017-Jun-22 20:00N 54°18' W 057°54'1515.3 080 / 121008.7 3.5 3.4 3.1
2017-Jun-22 19:00N 54°12' W 058°18'1212.1 070 / 151006.4 3.3 3.2 2.4
2017-Jun-22 18:00N 54°06' W 058°36'1616.0 070 / 171005.8 6.2 5.8 4.7
2017-Jun-22 17:00N 53°54' W 058°54'1110.6 070 / 211004.9 6.3 5.5 5.6
2017-Jun-22 16:00N 53°54' W 059°12'1616.0 050 / 221004.5 6.4 5.7 6.4
2017-Jun-22 15:00N 53°42' W 059°30'1212.2 050 / 171004.6 7.0 6.2 8.7
2017-Jun-22 14:00N 53°36' W 059°48'7 7.0 070 / 151005.3 6.9 6.5 8.7
2017-Jun-22 13:00N 53°30' W 059°54'1212.3 060 / 101005.5 7.1 7.0 9.7
2017-Jun-22 12:00N 53°24' W 060°12'9 9.3 050 / 111004.7 6.9 6.911.1
2017-Jun-22 11:00N 53°18' W 060°24'0 0.0 040 / 121005.3 7.3 7.2
2017-Jun-22 10:00N 53°18' W 060°24'0 0.0 040 / 121004.9 7.3 7.2
2017-Jun-22 09:00N 53°18' W 060°24'0 0.0 050 / 131004.8 7.2 7.1
2017-Jun-22 08:00N 53°18' W 060°24'0 0.0 040 / 121004.6 7.2 7.1
2017-Jun-22 07:00N 53°18' W 060°24'0 0.0 040 / 121004.3 7.3 7.3
2017-Jun-22 06:00N 53°18' W 060°24'0 0.0 050 / 131004.3 7.6 7.6
2017-Jun-22 05:00N 53°18' W 060°24'0 0.0 040 / 131004.6 7.5 7.5
2017-Jun-22 04:00N 53°18' W 060°24'0 0.0 050 / 131004.7 7.6 7.6
2017-Jun-22 03:00N 53°18' W 060°24'0 0.0 050 / 141005.0 7.7 7.6
2017-Jun-22 02:00N 53°18' W 060°24'0 0.0 050 / 121005.1 8.0 7.6
2017-Jun-22 01:00N 53°18' W 060°24'0 0.0 040 / 111005.4 8.4 6.9
2017-Jun-22 00:00N 53°18' W 060°24'0 0.0 050 / 121005.0 9.0 7.1
2017-Jun-21 23:00N 53°18' W 060°24'0 0.0 060 / 131004.7 9.6 6.7
2017-Jun-21 22:00N 53°18' W 060°24'0 0.0 060 / 101004.1 9.6 6.812.7
2017-Jun-21 21:00N 53°18' W 060°24'9 9.3 070 / 131004.2 9.0 6.612.0
2017-Jun-21 20:00N 53°24' W 060°12'1212.3 040 / 111003.6 8.8 6.5 9.8
2017-Jun-21 19:00N 53°30' W 059°54'7 7.0 040 / 111003.9 7.6 5.9 9.9
2017-Jun-21 18:00N 53°36' W 059°48'1212.2 070 / 81003.8 7.2 5.6 8.0
2017-Jun-21 17:00N 53°42' W 059°30'1616.0 100 / 81003.2 6.5 5.2 9.0
2017-Jun-21 16:00N 53°54' W 059°12'1110.6 110 / 81002.9 5.7 5.4 6.4
2017-Jun-21 15:00N 53°54' W 058°54'1212.2 280 / 11002.3 4.8 4.8 5.0
2017-Jun-21 14:00N 54°00' W 058°36'1413.9 230 / 41001.3 4.0 3.9 5.1
2017-Jun-21 13:00N 54°12' W 058°24'9 9.2 360 / 51000.7 3.9 3.9 2.2
2017-Jun-21 12:00N 54°18' W 058°12'1414.0 350 / 7999.4 3.3 3.3 3.3
2017-Jun-21 11:00N 54°18' W 057°48'1515.2 050 / 9998.2 3.2 3.1 4.2
2017-Jun-21 10:00N 54°24' W 057°24'1010.5 030 / 13998.4 2.5 2.5 3.6
2017-Jun-21 09:00N 54°24' W 057°06'1010.5 020 / 13997.8 1.5 1.5 0.9
2017-Jun-21 08:00N 54°24' W 056°48'1212.1 040 / 15997.4 1.5 1.5 1.3
2017-Jun-21 07:00N 54°18' W 056°30'7 7.0 040 / 15997.1 1.7 1.6 1.2
2017-Jun-21 06:00N 54°18' W 056°18'7 6.9 060 / 14997.2 2.0 2.0 1.4
2017-Jun-21 05:00N 54°12' W 056°12'9 9.2 070 / 12997.9 2.2 2.2 1.7
2017-Jun-21 04:00N 54°06' W 056°00'1312.5 080 / 13998.5 2.4 2.4 1.8
2017-Jun-21 03:00N 53°54' W 055°54'9 9.3 090 / 14999.7 2.7 2.7 2.7
2017-Jun-21 02:00N 53°48' W 055°42'7 7.0 070 / 131000.6 2.8 2.8 2.4
2017-Jun-21 01:00N 53°42' W 055°36'9 9.3 050 / 91001.7 2.9 2.8 2.8
2017-Jun-21 00:00N 53°36' W 055°24'7 7.0 270 / 11002.1 2.7 2.6 2.4
2017-Jun-20 23:00N 53°30' W 055°18'1312.5 360 / 41001.6 2.7 2.6 2.6
2017-Jun-20 22:00N 53°18' W 055°24'1212.0 340 / 111001.7 3.6 3.6 3.3
2017-Jun-20 21:00N 53°06' W 055°24'1212.0 340 / 51002.0 4.3 4.3 3.3
2017-Jun-20 20:00N 52°54' W 055°24'1212.0 260 / 51001.6 5.5 5.5 4.1
2017-Jun-20 19:00N 52°42' W 055°24'1212.0 260 / 51001.9 4.2 4.2 3.2
2017-Jun-20 18:00N 52°30' W 055°24'7 7.0 270 / 41002.9 4.3 4.3 2.9
2017-Jun-20 17:00N 52°24' W 055°18'1212.0 200 / 141003.7 5.5 5.5 2.7
2017-Jun-20 16:00N 52°12' W 055°18'1312.6 190 / 131004.6 6.5 6.5 3.1
2017-Jun-20 15:00N 52°00' W 055°24'1312.6 200 / 171005.5 6.5 6.5 3.0
2017-Jun-20 14:00N 51°54' W 055°42'10 9.5 150 / 101006.7 3.0 3.0 2.7
2017-Jun-20 13:00N 51°48' W 055°54'1616.4 080 / 31007.4 2.9 2.8 2.6
2017-Jun-20 12:00N 51°36' W 056°12'10 9.6 060 / 71008.2 2.8 2.8 2.5
2017-Jun-20 11:00N 51°30' W 056°24'1312.7 060 / 81008.4 2.7 2.6 2.9
2017-Jun-20 10:00N 51°24' W 056°42'10 9.6 050 / 121008.4 3.5 3.4 5.5
2017-Jun-20 09:00N 51°18' W 056°54'1312.8 050 / 181008.0 3.4 3.3 2.3
2017-Jun-20 08:00N 51°12' W 057°12'1312.8 070 / 151008.5 4.1 4.1 6.3
2017-Jun-20 07:00N 51°06' W 057°30'1312.6 080 / 151008.5 5.9 5.9 5.0
2017-Jun-20 06:00N 50°54' W 057°36'4113.6 090 / 131009.5 7.1 7.1 6.0
2017-Jun-20 03:00N 50°18' W 058°06'3411.2 210 / 131010.7 10.0 9.9 6.6
2017-Jun-20 00:00N 49°48' W 058°30'3913.1 200 / 181010.5 12.112.1 7.1
2017-Jun-19 21:00N 49°12' W 058°54'4113.7 170 / 131010.5 10.110.1 7.6
2017-Jun-19 18:00N 48°36' W 059°24'4515.0 200 / 191010.4 12.512.5 8.0
2017-Jun-19 15:00N 47°54' W 059°48'3110.5 160 / 171011.3 11.411.4 7.6
2017-Jun-19 12:00N 47°30' W 059°18'4113.7 090 / 161013.1 8.1 8.1 7.7
2017-Jun-19 09:00N 47°24' W 058°18'3712.4 130 / 41013.3 8.2 8.2 7.6
2017-Jun-19 06:00N 47°18' W 057°24'4113.7 160 / 111013.9 7.6 7.5 7.0
2017-Jun-19 03:00N 47°12' W 056°24'25 8.5 190 / 131015.3 7.2 7.2 7.1
2017-Jun-19 00:00N 46°48' W 056°12'0 0.0 210 / 131016.5 11.810.9
2017-Jun-18 21:00N 46°48' W 056°12'0 0.0 190 / 121017.8 9.5 9.4
2017-Jun-18 18:00N 46°48' W 056°12'0 0.0 210 / 121020.9 11.6 9.7
2017-Jun-18 15:00N 46°48' W 056°12'0 0.0 210 / 111023.2 11.1 9.4
2017-Jun-18 12:00N 46°48' W 056°12'0 0.0 210 / 91024.7 10.3 8.8
2017-Jun-18 09:00N 46°48' W 056°12'0 0.0 230 / 111024.9 9.2 8.5
2017-Jun-18 06:00N 46°48' W 056°12'0 0.0 220 / 121025.5 9.7 8.4
2017-Jun-18 03:00N 46°48' W 056°12'0 0.0 220 / 91027.2 9.9 6.4
2017-Jun-18 00:00N 46°48' W 056°12'0 0.0 220 / 121027.7 10.6 6.5
2017-Jun-17 21:00N 46°48' W 056°12'13 4.2 220 / 141028.3 12.4 6.2 6.7
2017-Jun-17 18:00N 46°36' W 056°06'3812.5 210 / 111028.9 8.3 7.2 6.5
2017-Jun-17 15:00N 46°12' W 056°48'4113.7 210 / 151028.9 8.7 7.9 6.5
2017-Jun-17 12:00N 45°48' W 057°36'3812.6 190 / 111028.9 8.7 7.5 7.1
2017-Jun-17 09:00N 45°24' W 058°18'3812.8 200 / 101028.6 8.6 7.5 6.9
2017-Jun-17 06:00N 45°06' W 059°06'3812.8 190 / 111027.8 8.7 7.7 7.5
2017-Jun-17 03:00N 44°48' W 059°54'3912.9 190 / 81027.2 8.9 8.3 7.8
2017-Jun-17 00:00N 44°30' W 060°42'3912.9 180 / 101026.9 9.6 9.2 8.3
2017-Jun-16 21:00N 44°12' W 061°30'4314.3 190 / 111026.8 10.4 9.6 9.6
2017-Jun-16 18:00N 43°54' W 062°24'4314.3 160 / 111025.4 11.0 9.710.0
2017-Jun-16 15:00N 43°36' W 063°18'4113.7 170 / 161025.0 10.8 9.2 9.3
2017-Jun-16 12:00N 43°24' W 064°12'4515.1 150 / 81024.0 11.210.110.5
2017-Jun-16 09:00N 43°12' W 065°12'3913.1 080 / 31022.7 10.8 9.911.2
2017-Jun-16 06:00N 43°12' W 066°06'3912.9 170 / 101021.7 10.710.4 8.3
2017-Jun-16 03:00N 43°36' W 066°48'4214.1 230 / 91021.6 12.410.7 8.9
2017-Jun-16 00:00N 44°18' W 066°54'3913.2 230 / 81020.1 12.110.2 9.0
2017-Jun-15 21:00N 44°48' W 066°18'3310.9 230 / 101018.7 12.6 8.3 9.5
2017-Jun-15 18:00N 45°18' W 066°00'0 0.0 200 / 91019.1 11.3 9.7
2017-Jun-15 15:00N 45°18' W 066°00'0 0.0 190 / 91019.9 12.2 8.2
2017-Jun-15 12:00N 45°18' W 066°00'0 0.0 230 / 21019.9 13.1 6.9
2017-Jun-15 09:00N 45°18' W 066°00'0 0.0 100 / 41018.6 11.3 6.2
2017-Jun-15 06:00N 45°18' W 066°00'0 0.0 090 / 91017.9 10.7 6.5
2017-Jun-15 03:00N 45°18' W 066°00'0 0.0 080 / 11017.7 13.4 7.9
2017-Jun-15 00:00N 45°18' W 066°00'0 0.0 180 / 31016.0 14.6 8.0
2017-Jun-14 21:00N 45°18' W 066°00'24 8.1 350 / 131013.7 18.5 4.8
2017-Jun-14 18:00N 44°54' W 066°06'3511.5 280 / 41012.7 13.7 7.011.1
2017-Jun-14 15:00N 44°24' W 066°30'4314.3 330 / 111013.9 11.1 5.3 8.9
2017-Jun-14 12:00N 43°42' W 066°42'3210.8 340 / 181011.8 11.1 6.7 8.7
2017-Jun-14 09:00N 43°18' W 066°12'3511.8 360 / 171009.0 11.7 7.6 8.4
2017-Jun-14 06:00N 43°12' W 065°24'   330 / 121008.4 16.713.810.4

Dump ship's entire track history